sensor_id;sensor_type;location;lat;lon;timestamp;temperature;humidity
3360;DHT22;1693;49.602;11.046;2022-12-29T00:00:18;7.50;99.90
3360;DHT22;1693;49.602;11.046;2022-12-29T00:02:50;7.50;99.90
3360;DHT22;1693;49.602;11.046;2022-12-29T00:05:18;7.50;99.90
3360;DHT22;1693;49.602;11.046;2022-12-29T00:07:48;7.50;99.90
3360;DHT22;1693;49.602;11.046;2022-12-29T00:10:19;7.50;99.90
3360;DHT22;1693;49.602;11.046;2022-12-29T00:12:49;7.50;99.90
3360;DHT22;1693;49.602;11.046;2022-12-29T00:15:36;7.60;99.90
3360;DHT22;1693;49.602;11.046;2022-12-29T00:18:09;7.60;99.90
3360;DHT22;1693;49.602;11.046;2022-12-29T00:20:36;7.60;99.90
3360;DHT22;1693;49.602;11.046;2022-12-29T00:23:22;7.60;99.90
3360;DHT22;1693;49.602;11.046;2022-12-29T00:26:13;7.70;99.90
3360;DHT22;1693;49.602;11.046;2022-12-29T00:29:01;7.70;99.90
3360;DHT22;1693;49.602;11.046;2022-12-29T00:31:41;7.80;99.90
3360;DHT22;1693;49.602;11.046;2022-12-29T00:34:27;7.90;99.90
3360;DHT22;1693;49.602;11.046;2022-12-29T00:37:12;8.00;99.90
3360;DHT22;1693;49.602;11.046;2022-12-29T00:39:40;8.00;99.90
3360;DHT22;1693;49.602;11.046;2022-12-29T00:42:25;8.00;99.90
3360;DHT22;1693;49.602;11.046;2022-12-29T00:45:10;8.10;99.90
3360;DHT22;1693;49.602;11.046;2022-12-29T00:47:39;8.20;99.90
3360;DHT22;1693;49.602;11.046;2022-12-29T00:50:12;8.20;99.90
3360;DHT22;1693;49.602;11.046;2022-12-29T00:52:39;8.30;99.90
3360;DHT22;1693;49.602;11.046;2022-12-29T00:55:07;8.30;99.90
3360;DHT22;1693;49.602;11.046;2022-12-29T00:57:35;8.40;99.90
3360;DHT22;1693;49.602;11.046;2022-12-29T01:00:02;8.40;99.90
3360;DHT22;1693;49.602;11.046;2022-12-29T01:02:32;8.40;99.90
3360;DHT22;1693;49.602;11.046;2022-12-29T01:05:00;8.40;99.90
3360;DHT22;1693;49.602;11.046;2022-12-29T01:07:33;8.40;99.90
3360;DHT22;1693;49.602;11.046;2022-12-29T01:10:00;8.50;99.90
3360;DHT22;1693;49.602;11.046;2022-12-29T01:12:41;8.50;99.90
3360;DHT22;1693;49.602;11.046;2022-12-29T01:15:15;8.50;99.90
3360;DHT22;1693;49.602;11.046;2022-12-29T01:17:45;8.60;99.90
3360;DHT22;1693;49.602;11.046;2022-12-29T01:20:14;8.60;99.90
3360;DHT22;1693;49.602;11.046;2022-12-29T01:22:47;8.50;99.90
3360;DHT22;1693;49.602;11.046;2022-12-29T01:25:17;8.50;99.90
3360;DHT22;1693;49.602;11.046;2022-12-29T01:27:46;8.50;99.90
3360;DHT22;1693;49.602;11.046;2022-12-29T01:30:16;8.50;99.90
3360;DHT22;1693;49.602;11.046;2022-12-29T01:32:46;8.50;99.90
3360;DHT22;1693;49.602;11.046;2022-12-29T01:35:16;8.60;99.90
3360;DHT22;1693;49.602;11.046;2022-12-29T01:37:49;8.50;99.90
3360;DHT22;1693;49.602;11.046;2022-12-29T01:40:16;8.50;99.90
3360;DHT22;1693;49.602;11.046;2022-12-29T01:42:43;8.50;99.90
3360;DHT22;1693;49.602;11.046;2022-12-29T01:45:16;8.50;99.90
3360;DHT22;1693;49.602;11.046;2022-12-29T01:47:47;8.60;99.90
3360;DHT22;1693;49.602;11.046;2022-12-29T01:50:19;8.60;99.90
3360;DHT22;1693;49.602;11.046;2022-12-29T01:52:54;8.60;99.90
3360;DHT22;1693;49.602;11.046;2022-12-29T01:55:26;8.70;99.90
3360;DHT22;1693;49.602;11.046;2022-12-29T01:57:56;8.70;99.90
3360;DHT22;1693;49.602;11.046;2022-12-29T02:00:26;8.70;99.90
3360;DHT22;1693;49.602;11.046;2022-12-29T02:02:56;8.80;99.90
3360;DHT22;1693;49.602;11.046;2022-12-29T02:05:28;8.80;99.90
3360;DHT22;1693;49.602;11.046;2022-12-29T02:08:01;8.80;99.90
3360;DHT22;1693;49.602;11.046;2022-12-29T02:10:33;8.80;99.90
3360;DHT22;1693;49.602;11.046;2022-12-29T02:13:03;8.90;99.90
3360;DHT22;1693;49.602;11.046;2022-12-29T02:15:38;8.90;99.90
3360;DHT22;1693;49.602;11.046;2022-12-29T02:18:29;9.00;99.90
3360;DHT22;1693;49.602;11.046;2022-12-29T02:24:50;9.10;99.90
3360;DHT22;1693;49.602;11.046;2022-12-29T02:31:23;9.00;99.90
3360;DHT22;1693;49.602;11.046;2022-12-29T02:34:02;9.00;99.90
3360;DHT22;1693;49.602;11.046;2022-12-29T02:36:40;9.10;99.90
3360;DHT22;1693;49.602;11.046;2022-12-29T02:39:18;9.10;99.90
3360;DHT22;1693;49.602;11.046;2022-12-29T02:41:56;9.10;99.90
3360;DHT22;1693;49.602;11.046;2022-12-29T02:44:29;9.10;99.90
3360;DHT22;1693;49.602;11.046;2022-12-29T02:47:11;9.10;99.90
3360;DHT22;1693;49.602;11.046;2022-12-29T02:49:48;9.20;99.90
3360;DHT22;1693;49.602;11.046;2022-12-29T02:52:27;9.10;99.90
3360;DHT22;1693;49.602;11.046;2022-12-29T02:54:58;9.00;99.90
3360;DHT22;1693;49.602;11.046;2022-12-29T02:57:31;9.00;99.90
3360;DHT22;1693;49.602;11.046;2022-12-29T03:00:03;8.90;99.90
3360;DHT22;1693;49.602;11.046;2022-12-29T03:02:53;8.90;99.90
3360;DHT22;1693;49.602;11.046;2022-12-29T03:05:58;9.00;99.90
3360;DHT22;1693;49.602;11.046;2022-12-29T03:08:38;9.00;99.90
3360;DHT22;1693;49.602;11.046;2022-12-29T03:11:12;8.90;99.90
3360;DHT22;1693;49.602;11.046;2022-12-29T03:13:56;8.90;99.90
3360;DHT22;1693;49.602;11.046;2022-12-29T03:16:46;8.80;99.90
3360;DHT22;1693;49.602;11.046;2022-12-29T03:19:21;8.70;99.90
3360;DHT22;1693;49.602;11.046;2022-12-29T03:21:55;8.80;99.90
3360;DHT22;1693;49.602;11.046;2022-12-29T03:24:47;8.80;99.90
3360;DHT22;1693;49.602;11.046;2022-12-29T03:27:21;8.90;99.90
3360;DHT22;1693;49.602;11.046;2022-12-29T03:29:53;8.80;99.90
3360;DHT22;1693;49.602;11.046;2022-12-29T03:32:27;8.90;99.90
3360;DHT22;1693;49.602;11.046;2022-12-29T03:34:58;8.90;99.90
3360;DHT22;1693;49.602;11.046;2022-12-29T03:37:31;9.00;99.90
3360;DHT22;1693;49.602;11.046;2022-12-29T03:40:05;9.00;99.90
3360;DHT22;1693;49.602;11.046;2022-12-29T03:42:36;9.00;99.90
3360;DHT22;1693;49.602;11.046;2022-12-29T03:45:10;9.10;99.90
3360;DHT22;1693;49.602;11.046;2022-12-29T03:47:37;9.10;99.90
3360;DHT22;1693;49.602;11.046;2022-12-29T03:50:13;9.10;99.90
3360;DHT22;1693;49.602;11.046;2022-12-29T03:52:41;9.20;99.90
3360;DHT22;1693;49.602;11.046;2022-12-29T03:55:09;9.20;99.90
3360;DHT22;1693;49.602;11.046;2022-12-29T03:57:38;9.30;99.90
3360;DHT22;1693;49.602;11.046;2022-12-29T04:00:10;9.20;99.90
3360;DHT22;1693;49.602;11.046;2022-12-29T04:02:39;9.10;99.90
3360;DHT22;1693;49.602;11.046;2022-12-29T04:05:11;9.10;99.90
3360;DHT22;1693;49.602;11.046;2022-12-29T04:07:43;9.10;99.90
3360;DHT22;1693;49.602;11.046;2022-12-29T04:10:13;9.10;99.90
3360;DHT22;1693;49.602;11.046;2022-12-29T04:12:40;9.20;99.90
3360;DHT22;1693;49.602;11.046;2022-12-29T04:15:10;9.20;99.90
3360;DHT22;1693;49.602;11.046;2022-12-29T04:17:39;9.20;99.90
3360;DHT22;1693;49.602;11.046;2022-12-29T04:20:10;9.20;99.90
3360;DHT22;1693;49.602;11.046;2022-12-29T04:22:59;9.20;99.90
3360;DHT22;1693;49.602;11.046;2022-12-29T04:25:26;9.10;99.90
3360;DHT22;1693;49.602;11.046;2022-12-29T04:27:56;9.20;99.90
3360;DHT22;1693;49.602;11.046;2022-12-29T04:30:26;9.20;99.90
3360;DHT22;1693;49.602;11.046;2022-12-29T04:32:54;9.20;99.90
3360;DHT22;1693;49.602;11.046;2022-12-29T04:35:25;9.20;99.90
3360;DHT22;1693;49.602;11.046;2022-12-29T04:37:53;9.30;99.90
3360;DHT22;1693;49.602;11.046;2022-12-29T04:40:23;9.20;99.90
3360;DHT22;1693;49.602;11.046;2022-12-29T04:42:51;9.20;99.90
3360;DHT22;1693;49.602;11.046;2022-12-29T04:45:19;9.20;99.90
3360;DHT22;1693;49.602;11.046;2022-12-29T04:47:48;9.20;99.90
3360;DHT22;1693;49.602;11.046;2022-12-29T04:50:19;9.00;99.90
3360;DHT22;1693;49.602;11.046;2022-12-29T04:52:49;9.00;99.90
3360;DHT22;1693;49.602;11.046;2022-12-29T04:55:16;9.10;99.90
3360;DHT22;1693;49.602;11.046;2022-12-29T04:57:44;9.10;99.90
3360;DHT22;1693;49.602;11.046;2022-12-29T05:00:14;9.10;99.90
3360;DHT22;1693;49.602;11.046;2022-12-29T05:02:43;9.00;99.90
3360;DHT22;1693;49.602;11.046;2022-12-29T05:05:14;9.00;99.90
3360;DHT22;1693;49.602;11.046;2022-12-29T05:07:46;9.00;99.90
3360;DHT22;1693;49.602;11.046;2022-12-29T05:10:15;9.00;99.90
3360;DHT22;1693;49.602;11.046;2022-12-29T05:12:54;9.10;99.90
3360;DHT22;1693;49.602;11.046;2022-12-29T05:15:23;9.10;99.90
3360;DHT22;1693;49.602;11.046;2022-12-29T05:17:54;9.20;99.90
3360;DHT22;1693;49.602;11.046;2022-12-29T05:20:24;9.10;99.90
3360;DHT22;1693;49.602;11.046;2022-12-29T05:22:55;9.10;99.90
3360;DHT22;1693;49.602;11.046;2022-12-29T05:25:24;9.10;99.90
3360;DHT22;1693;49.602;11.046;2022-12-29T05:27:53;9.00;99.90
3360;DHT22;1693;49.602;11.046;2022-12-29T05:30:22;9.00;99.90
3360;DHT22;1693;49.602;11.046;2022-12-29T05:32:50;9.00;99.90
3360;DHT22;1693;49.602;11.046;2022-12-29T05:35:21;8.90;99.90
3360;DHT22;1693;49.602;11.046;2022-12-29T05:37:53;8.80;99.90
3360;DHT22;1693;49.602;11.046;2022-12-29T05:40:24;8.70;99.90
3360;DHT22;1693;49.602;11.046;2022-12-29T05:42:55;8.70;99.90
3360;DHT22;1693;49.602;11.046;2022-12-29T05:45:23;8.60;99.90
3360;DHT22;1693;49.602;11.046;2022-12-29T05:47:51;8.50;99.90
3360;DHT22;1693;49.602;11.046;2022-12-29T05:50:22;8.40;99.90
3360;DHT22;1693;49.602;11.046;2022-12-29T05:52:52;8.30;99.90
3360;DHT22;1693;49.602;11.046;2022-12-29T05:55:19;8.20;99.90
3360;DHT22;1693;49.602;11.046;2022-12-29T05:57:50;8.10;99.90
3360;DHT22;1693;49.602;11.046;2022-12-29T06:00:19;8.10;99.90
3360;DHT22;1693;49.602;11.046;2022-12-29T06:02:49;8.00;99.90
3360;DHT22;1693;49.602;11.046;2022-12-29T06:05:18;7.90;99.90
3360;DHT22;1693;49.602;11.046;2022-12-29T06:07:48;7.90;99.90
3360;DHT22;1693;49.602;11.046;2022-12-29T06:10:18;7.90;99.90
3360;DHT22;1693;49.602;11.046;2022-12-29T06:12:46;7.80;99.90
3360;DHT22;1693;49.602;11.046;2022-12-29T06:15:17;7.80;99.90
3360;DHT22;1693;49.602;11.046;2022-12-29T06:17:46;7.80;99.90
3360;DHT22;1693;49.602;11.046;2022-12-29T06:20:17;7.80;99.90
3360;DHT22;1693;49.602;11.046;2022-12-29T06:22:46;7.80;99.90
3360;DHT22;1693;49.602;11.046;2022-12-29T06:25:13;7.70;99.90
3360;DHT22;1693;49.602;11.046;2022-12-29T06:27:41;7.60;99.90
3360;DHT22;1693;49.602;11.046;2022-12-29T06:30:11;7.60;99.90
3360;DHT22;1693;49.602;11.046;2022-12-29T06:32:42;7.60;99.90
3360;DHT22;1693;49.602;11.046;2022-12-29T06:35:10;7.60;99.90
3360;DHT22;1693;49.602;11.046;2022-12-29T06:37:39;7.60;99.90
3360;DHT22;1693;49.602;11.046;2022-12-29T06:40:07;7.60;99.90
3360;DHT22;1693;49.602;11.046;2022-12-29T06:42:36;7.60;99.90
3360;DHT22;1693;49.602;11.046;2022-12-29T06:45:07;7.60;99.90
3360;DHT22;1693;49.602;11.046;2022-12-29T06:47:40;7.60;99.90
3360;DHT22;1693;49.602;11.046;2022-12-29T06:50:09;7.60;99.90
3360;DHT22;1693;49.602;11.046;2022-12-29T06:52:41;7.40;99.90
3360;DHT22;1693;49.602;11.046;2022-12-29T06:55:08;7.50;99.90
3360;DHT22;1693;49.602;11.046;2022-12-29T06:57:36;7.40;99.90
3360;DHT22;1693;49.602;11.046;2022-12-29T07:00:04;7.40;99.90
3360;DHT22;1693;49.602;11.046;2022-12-29T07:02:31;7.40;99.90
3360;DHT22;1693;49.602;11.046;2022-12-29T07:05:01;7.40;99.90
3360;DHT22;1693;49.602;11.046;2022-12-29T07:07:30;7.40;99.90
3360;DHT22;1693;49.602;11.046;2022-12-29T07:10:00;7.40;99.90
3360;DHT22;1693;49.602;11.046;2022-12-29T07:12:28;7.40;99.90
3360;DHT22;1693;49.602;11.046;2022-12-29T07:14:55;7.40;99.90
3360;DHT22;1693;49.602;11.046;2022-12-29T07:17:22;7.40;99.90
3360;DHT22;1693;49.602;11.046;2022-12-29T07:19:52;7.50;99.90
3360;DHT22;1693;49.602;11.046;2022-12-29T07:22:22;7.50;99.90
3360;DHT22;1693;49.602;11.046;2022-12-29T07:24:50;7.50;99.90
3360;DHT22;1693;49.602;11.046;2022-12-29T07:27:19;7.50;99.90
3360;DHT22;1693;49.602;11.046;2022-12-29T07:29:50;7.40;99.90
3360;DHT22;1693;49.602;11.046;2022-12-29T07:32:18;7.50;99.90
3360;DHT22;1693;49.602;11.046;2022-12-29T07:34:45;7.60;99.90
3360;DHT22;1693;49.602;11.046;2022-12-29T07:37:15;7.60;99.90
3360;DHT22;1693;49.602;11.046;2022-12-29T07:39:46;7.60;99.90
3360;DHT22;1693;49.602;11.046;2022-12-29T07:42:17;7.70;99.90
3360;DHT22;1693;49.602;11.046;2022-12-29T07:44:44;7.80;99.90
3360;DHT22;1693;49.602;11.046;2022-12-29T07:47:13;7.90;99.90
3360;DHT22;1693;49.602;11.046;2022-12-29T07:49:40;8.00;99.90
3360;DHT22;1693;49.602;11.046;2022-12-29T07:52:08;8.10;99.90
3360;DHT22;1693;49.602;11.046;2022-12-29T07:54:39;8.20;99.90
3360;DHT22;1693;49.602;11.046;2022-12-29T07:57:15;8.40;99.90
3360;DHT22;1693;49.602;11.046;2022-12-29T07:59:43;8.50;99.90
3360;DHT22;1693;49.602;11.046;2022-12-29T08:02:13;8.50;99.90
3360;DHT22;1693;49.602;11.046;2022-12-29T08:04:40;8.60;99.90
3360;DHT22;1693;49.602;11.046;2022-12-29T08:07:09;8.70;99.90
3360;DHT22;1693;49.602;11.046;2022-12-29T08:09:37;8.70;99.90
3360;DHT22;1693;49.602;11.046;2022-12-29T08:12:11;8.80;99.90
3360;DHT22;1693;49.602;11.046;2022-12-29T08:14:40;8.90;99.90
3360;DHT22;1693;49.602;11.046;2022-12-29T08:17:07;9.00;99.90
3360;DHT22;1693;49.602;11.046;2022-12-29T08:19:35;9.10;99.90
3360;DHT22;1693;49.602;11.046;2022-12-29T08:22:03;9.20;99.90
3360;DHT22;1693;49.602;11.046;2022-12-29T08:24:34;9.30;99.90
3360;DHT22;1693;49.602;11.046;2022-12-29T08:27:05;9.30;99.90
3360;DHT22;1693;49.602;11.046;2022-12-29T08:29:37;9.40;99.90
3360;DHT22;1693;49.602;11.046;2022-12-29T08:32:06;9.50;99.90
3360;DHT22;1693;49.602;11.046;2022-12-29T08:34:38;9.60;99.90
3360;DHT22;1693;49.602;11.046;2022-12-29T08:37:06;9.70;99.90
3360;DHT22;1693;49.602;11.046;2022-12-29T08:39:34;9.70;99.90
3360;DHT22;1693;49.602;11.046;2022-12-29T08:42:05;9.90;99.90
3360;DHT22;1693;49.602;11.046;2022-12-29T08:44:34;10.10;99.90
3360;DHT22;1693;49.602;11.046;2022-12-29T08:47:06;10.20;99.90
3360;DHT22;1693;49.602;11.046;2022-12-29T08:49:36;10.20;99.90
3360;DHT22;1693;49.602;11.046;2022-12-29T08:52:04;10.20;99.90
3360;DHT22;1693;49.602;11.046;2022-12-29T08:54:36;10.20;99.90
3360;DHT22;1693;49.602;11.046;2022-12-29T08:57:06;10.20;99.90
3360;DHT22;1693;49.602;11.046;2022-12-29T08:59:35;10.20;99.90
3360;DHT22;1693;49.602;11.046;2022-12-29T09:02:08;10.30;99.90
3360;DHT22;1693;49.602;11.046;2022-12-29T09:04:38;10.30;99.90
3360;DHT22;1693;49.602;11.046;2022-12-29T09:07:08;10.30;99.90
3360;DHT22;1693;49.602;11.046;2022-12-29T09:09:36;10.30;99.90
3360;DHT22;1693;49.602;11.046;2022-12-29T09:12:07;10.30;99.90
3360;DHT22;1693;49.602;11.046;2022-12-29T09:14:36;10.20;99.90
3360;DHT22;1693;49.602;11.046;2022-12-29T09:17:04;10.30;99.90
3360;DHT22;1693;49.602;11.046;2022-12-29T09:19:50;10.30;99.90
3360;DHT22;1693;49.602;11.046;2022-12-29T09:22:17;10.30;99.90
3360;DHT22;1693;49.602;11.046;2022-12-29T09:24:47;10.40;99.90
3360;DHT22;1693;49.602;11.046;2022-12-29T09:27:15;10.60;99.90
3360;DHT22;1693;49.602;11.046;2022-12-29T09:29:43;10.60;99.90
3360;DHT22;1693;49.602;11.046;2022-12-29T09:32:25;10.60;99.90
3360;DHT22;1693;49.602;11.046;2022-12-29T09:34:55;10.70;99.90
3360;DHT22;1693;49.602;11.046;2022-12-29T09:37:23;10.70;99.90
3360;DHT22;1693;49.602;11.046;2022-12-29T09:39:50;10.80;99.90
3360;DHT22;1693;49.602;11.046;2022-12-29T09:42:22;10.90;99.90
3360;DHT22;1693;49.602;11.046;2022-12-29T09:45:05;10.90;99.90
3360;DHT22;1693;49.602;11.046;2022-12-29T09:47:36;11.00;99.90
3360;DHT22;1693;49.602;11.046;2022-12-29T09:50:09;11.00;99.90
3360;DHT22;1693;49.602;11.046;2022-12-29T09:52:43;11.10;99.90
3360;DHT22;1693;49.602;11.046;2022-12-29T09:55:17;11.20;99.90
3360;DHT22;1693;49.602;11.046;2022-12-29T09:57:49;11.20;99.90
3360;DHT22;1693;49.602;11.046;2022-12-29T10:00:22;11.30;99.90
3360;DHT22;1693;49.602;11.046;2022-12-29T10:02:58;11.30;99.90
3360;DHT22;1693;49.602;11.046;2022-12-29T10:05:39;11.30;99.90
3360;DHT22;1693;49.602;11.046;2022-12-29T10:08:26;11.30;99.90
3360;DHT22;1693;49.602;11.046;2022-12-29T10:10:59;11.20;99.90
3360;DHT22;1693;49.602;11.046;2022-12-29T10:13:42;11.30;99.90
3360;DHT22;1693;49.602;11.046;2022-12-29T10:16:20;11.30;99.90
3360;DHT22;1693;49.602;11.046;2022-12-29T10:19:12;11.30;99.90
3360;DHT22;1693;49.602;11.046;2022-12-29T10:21:54;11.30;99.90
3360;DHT22;1693;49.602;11.046;2022-12-29T10:24:26;11.40;99.90
3360;DHT22;1693;49.602;11.046;2022-12-29T10:26:57;11.50;99.90
3360;DHT22;1693;49.602;11.046;2022-12-29T10:29:29;11.40;99.90
3360;DHT22;1693;49.602;11.046;2022-12-29T10:32:04;11.50;99.90
3360;DHT22;1693;49.602;11.046;2022-12-29T10:34:44;11.50;99.90
3360;DHT22;1693;49.602;11.046;2022-12-29T10:37:21;11.60;99.90
3360;DHT22;1693;49.602;11.046;2022-12-29T10:39:57;11.80;99.90
3360;DHT22;1693;49.602;11.046;2022-12-29T10:42:27;11.80;99.90
3360;DHT22;1693;49.602;11.046;2022-12-29T10:45:00;12.00;99.90
3360;DHT22;1693;49.602;11.046;2022-12-29T10:47:35;12.30;99.90
3360;DHT22;1693;49.602;11.046;2022-12-29T10:50:12;12.40;99.90
3360;DHT22;1693;49.602;11.046;2022-12-29T10:52:41;12.50;99.90
3360;DHT22;1693;49.602;11.046;2022-12-29T10:55:13;12.70;99.90
3360;DHT22;1693;49.602;11.046;2022-12-29T10:57:44;12.90;99.90
3360;DHT22;1693;49.602;11.046;2022-12-29T11:00:15;13.00;99.90
3360;DHT22;1693;49.602;11.046;2022-12-29T11:05:54;12.80;99.90
3360;DHT22;1693;49.602;11.046;2022-12-29T11:08:30;12.70;99.90
3360;DHT22;1693;49.602;11.046;2022-12-29T11:11:00;12.50;99.90
3360;DHT22;1693;49.602;11.046;2022-12-29T11:13:29;12.50;99.90
3360;DHT22;1693;49.602;11.046;2022-12-29T11:15:57;12.40;99.90
3360;DHT22;1693;49.602;11.046;2022-12-29T11:18:32;12.40;99.90
3360;DHT22;1693;49.602;11.046;2022-12-29T11:21:03;12.40;99.90
3360;DHT22;1693;49.602;11.046;2022-12-29T11:23:35;12.50;99.90
3360;DHT22;1693;49.602;11.046;2022-12-29T11:26:16;12.50;99.90
3360;DHT22;1693;49.602;11.046;2022-12-29T11:28:46;12.40;99.90
3360;DHT22;1693;49.602;11.046;2022-12-29T11:31:20;12.40;99.90
3360;DHT22;1693;49.602;11.046;2022-12-29T11:33:50;12.50;99.90
3360;DHT22;1693;49.602;11.046;2022-12-29T11:36:28;12.50;99.90
3360;DHT22;1693;49.602;11.046;2022-12-29T11:38:56;12.40;99.90
3360;DHT22;1693;49.602;11.046;2022-12-29T11:41:28;12.40;99.90
3360;DHT22;1693;49.602;11.046;2022-12-29T11:43:57;12.40;99.90
3360;DHT22;1693;49.602;11.046;2022-12-29T11:46:29;12.40;99.90
3360;DHT22;1693;49.602;11.046;2022-12-29T11:49:01;12.40;99.90
3360;DHT22;1693;49.602;11.046;2022-12-29T11:51:41;12.40;99.90
3360;DHT22;1693;49.602;11.046;2022-12-29T11:54:18;12.40;99.90
3360;DHT22;1693;49.602;11.046;2022-12-29T11:56:46;12.30;99.90
3360;DHT22;1693;49.602;11.046;2022-12-29T12:02:34;11.80;99.90
3360;DHT22;1693;49.602;11.046;2022-12-29T12:05:25;11.50;99.90
3360;DHT22;1693;49.602;11.046;2022-12-29T12:08:07;11.20;99.90
3360;DHT22;1693;49.602;11.046;2022-12-29T12:10:50;11.10;99.90
3360;DHT22;1693;49.602;11.046;2022-12-29T12:13:29;11.00;99.90
3360;DHT22;1693;49.602;11.046;2022-12-29T12:16:04;11.00;99.90
3360;DHT22;1693;49.602;11.046;2022-12-29T12:18:39;11.10;99.90
3360;DHT22;1693;49.602;11.046;2022-12-29T12:21:16;11.20;99.90
3360;DHT22;1693;49.602;11.046;2022-12-29T12:24:07;11.40;99.90
3360;DHT22;1693;49.602;11.046;2022-12-29T12:26:55;11.60;99.90
3360;DHT22;1693;49.602;11.046;2022-12-29T12:29:29;11.80;99.90
3360;DHT22;1693;49.602;11.046;2022-12-29T12:32:05;11.90;99.90
3360;DHT22;1693;49.602;11.046;2022-12-29T12:34:41;12.00;99.90
3360;DHT22;1693;49.602;11.046;2022-12-29T12:40:34;12.20;99.90
3360;DHT22;1693;49.602;11.046;2022-12-29T12:43:36;12.20;99.90
3360;DHT22;1693;49.602;11.046;2022-12-29T12:47:00;12.10;99.90
3360;DHT22;1693;49.602;11.046;2022-12-29T12:50:18;12.00;99.90
3360;DHT22;1693;49.602;11.046;2022-12-29T12:56:37;12.00;99.90
3360;DHT22;1693;49.602;11.046;2022-12-29T12:59:41;12.00;99.90
3360;DHT22;1693;49.602;11.046;2022-12-29T13:02:54;11.90;99.90
3360;DHT22;1693;49.602;11.046;2022-12-29T13:05:51;11.90;99.90
3360;DHT22;1693;49.602;11.046;2022-12-29T13:08:52;11.90;99.90
3360;DHT22;1693;49.602;11.046;2022-12-29T13:11:41;11.90;99.90
3360;DHT22;1693;49.602;11.046;2022-12-29T13:14:36;12.00;99.90
3360;DHT22;1693;49.602;11.046;2022-12-29T13:17:13;12.10;99.90
3360;DHT22;1693;49.602;11.046;2022-12-29T13:19:50;12.00;99.90
3360;DHT22;1693;49.602;11.046;2022-12-29T13:22:28;12.10;99.90
3360;DHT22;1693;49.602;11.046;2022-12-29T13:25:15;12.10;99.90
3360;DHT22;1693;49.602;11.046;2022-12-29T13:28:09;12.10;99.90
3360;DHT22;1693;49.602;11.046;2022-12-29T13:30:48;12.10;99.90
3360;DHT22;1693;49.602;11.046;2022-12-29T13:33:28;12.10;99.90
3360;DHT22;1693;49.602;11.046;2022-12-29T13:36:02;12.10;99.90
3360;DHT22;1693;49.602;11.046;2022-12-29T13:38:40;12.10;99.90
3360;DHT22;1693;49.602;11.046;2022-12-29T13:41:21;12.10;99.90
3360;DHT22;1693;49.602;11.046;2022-12-29T13:43:54;12.10;99.90
3360;DHT22;1693;49.602;11.046;2022-12-29T13:46:34;12.10;99.90
3360;DHT22;1693;49.602;11.046;2022-12-29T13:49:11;12.10;99.90
3360;DHT22;1693;49.602;11.046;2022-12-29T13:51:42;12.00;99.90
3360;DHT22;1693;49.602;11.046;2022-12-29T13:54:23;12.10;99.90
3360;DHT22;1693;49.602;11.046;2022-12-29T13:57:02;12.00;99.90
3360;DHT22;1693;49.602;11.046;2022-12-29T13:59:44;12.10;99.90
3360;DHT22;1693;49.602;11.046;2022-12-29T14:02:31;12.10;99.90
3360;DHT22;1693;49.602;11.046;2022-12-29T14:05:32;12.10;99.90
3360;DHT22;1693;49.602;11.046;2022-12-29T14:08:04;12.10;99.90
3360;DHT22;1693;49.602;11.046;2022-12-29T14:10:37;12.10;99.90
3360;DHT22;1693;49.602;11.046;2022-12-29T14:13:12;12.10;99.90
3360;DHT22;1693;49.602;11.046;2022-12-29T14:15:45;12.10;99.90
3360;DHT22;1693;49.602;11.046;2022-12-29T14:18:22;12.10;99.90
3360;DHT22;1693;49.602;11.046;2022-12-29T14:21:00;12.00;99.90
3360;DHT22;1693;49.602;11.046;2022-12-29T14:23:40;12.00;99.90
3360;DHT22;1693;49.602;11.046;2022-12-29T14:26:14;11.90;99.90
3360;DHT22;1693;49.602;11.046;2022-12-29T14:28:47;11.70;99.90
3360;DHT22;1693;49.602;11.046;2022-12-29T14:31:34;11.50;99.90
3360;DHT22;1693;49.602;11.046;2022-12-29T14:34:29;11.40;99.90
3360;DHT22;1693;49.602;11.046;2022-12-29T14:37:04;11.10;99.90
3360;DHT22;1693;49.602;11.046;2022-12-29T14:39:40;10.90;99.90
3360;DHT22;1693;49.602;11.046;2022-12-29T14:42:13;10.60;99.90
3360;DHT22;1693;49.602;11.046;2022-12-29T14:44:49;10.50;99.90
3360;DHT22;1693;49.602;11.046;2022-12-29T14:47:25;10.40;99.90
3360;DHT22;1693;49.602;11.046;2022-12-29T14:50:05;10.40;99.90
3360;DHT22;1693;49.602;11.046;2022-12-29T14:52:51;10.40;99.90
3360;DHT22;1693;49.602;11.046;2022-12-29T14:55:37;10.20;99.90
3360;DHT22;1693;49.602;11.046;2022-12-29T14:58:12;10.20;99.90
3360;DHT22;1693;49.602;11.046;2022-12-29T15:00:43;10.20;99.90
3360;DHT22;1693;49.602;11.046;2022-12-29T15:03:17;10.20;99.90
3360;DHT22;1693;49.602;11.046;2022-12-29T15:05:49;10.10;99.90
3360;DHT22;1693;49.602;11.046;2022-12-29T15:08:25;10.10;99.90
3360;DHT22;1693;49.602;11.046;2022-12-29T15:11:00;9.70;99.90
3360;DHT22;1693;49.602;11.046;2022-12-29T15:13:34;9.70;99.90
3360;DHT22;1693;49.602;11.046;2022-12-29T15:16:04;9.70;99.90
3360;DHT22;1693;49.602;11.046;2022-12-29T15:18:34;9.70;99.90
3360;DHT22;1693;49.602;11.046;2022-12-29T15:21:13;9.80;99.90
3360;DHT22;1693;49.602;11.046;2022-12-29T15:23:47;9.70;99.90
3360;DHT22;1693;49.602;11.046;2022-12-29T15:26:17;9.70;99.90
3360;DHT22;1693;49.602;11.046;2022-12-29T15:28:50;9.80;99.90
3360;DHT22;1693;49.602;11.046;2022-12-29T15:31:30;9.90;99.90
3360;DHT22;1693;49.602;11.046;2022-12-29T15:34:11;9.90;99.90
3360;DHT22;1693;49.602;11.046;2022-12-29T15:36:40;10.00;99.90
3360;DHT22;1693;49.602;11.046;2022-12-29T15:39:28;9.90;99.90
3360;DHT22;1693;49.602;11.046;2022-12-29T15:41:59;9.90;99.90
3360;DHT22;1693;49.602;11.046;2022-12-29T15:44:36;9.90;99.90
3360;DHT22;1693;49.602;11.046;2022-12-29T15:47:09;9.80;99.90
3360;DHT22;1693;49.602;11.046;2022-12-29T15:49:42;9.90;99.90
3360;DHT22;1693;49.602;11.046;2022-12-29T15:52:19;9.90;99.90
3360;DHT22;1693;49.602;11.046;2022-12-29T15:54:54;9.90;99.90
3360;DHT22;1693;49.602;11.046;2022-12-29T15:57:27;9.90;99.90
3360;DHT22;1693;49.602;11.046;2022-12-29T16:00:00;9.90;99.90
3360;DHT22;1693;49.602;11.046;2022-12-29T16:02:31;9.80;99.90
3360;DHT22;1693;49.602;11.046;2022-12-29T16:05:01;9.90;99.90
3360;DHT22;1693;49.602;11.046;2022-12-29T16:07:32;9.90;99.90
3360;DHT22;1693;49.602;11.046;2022-12-29T16:10:26;9.90;99.90
3360;DHT22;1693;49.602;11.046;2022-12-29T16:13:04;9.90;99.90
3360;DHT22;1693;49.602;11.046;2022-12-29T16:15:46;9.90;99.90
3360;DHT22;1693;49.602;11.046;2022-12-29T16:18:25;10.00;99.90
3360;DHT22;1693;49.602;11.046;2022-12-29T16:20:55;10.10;99.90
3360;DHT22;1693;49.602;11.046;2022-12-29T16:23:27;10.10;99.90
3360;DHT22;1693;49.602;11.046;2022-12-29T16:26:02;10.10;99.90
3360;DHT22;1693;49.602;11.046;2022-12-29T16:28:39;10.20;99.90
3360;DHT22;1693;49.602;11.046;2022-12-29T16:31:18;10.20;99.90
3360;DHT22;1693;49.602;11.046;2022-12-29T16:33:49;10.20;99.90
3360;DHT22;1693;49.602;11.046;2022-12-29T16:36:29;10.20;99.90
3360;DHT22;1693;49.602;11.046;2022-12-29T16:39:19;10.20;99.90
3360;DHT22;1693;49.602;11.046;2022-12-29T16:41:56;10.20;99.90
3360;DHT22;1693;49.602;11.046;2022-12-29T16:44:34;10.20;99.90
3360;DHT22;1693;49.602;11.046;2022-12-29T16:47:18;10.20;99.90
3360;DHT22;1693;49.602;11.046;2022-12-29T16:49:52;10.20;99.90
3360;DHT22;1693;49.602;11.046;2022-12-29T16:52:39;10.20;99.90
3360;DHT22;1693;49.602;11.046;2022-12-29T16:55:14;10.30;99.90
3360;DHT22;1693;49.602;11.046;2022-12-29T16:57:47;10.30;99.90
3360;DHT22;1693;49.602;11.046;2022-12-29T17:00:20;10.40;99.90